Terminal Aerodrome Forecast
Issued by NWS

Home | Current Version | Previous Version | Text Only | Print | Product List | Glossary On
Versions: 1 2 3 4 5 6 7 8 9 10 11 12 13 14 15 16 17 18 19 20 21 22 23 24 25 26 27
000
FTUS41 KBUF 291100
TAFIAG
TAF
KIAG 291124Z 2912/3012 29007KT P6SM OVC050
     FM291400 34008KT P6SM OVC050
     FM291900 32006KT P6SM OVC110
     FM300100 26005KT P6SM SCT140
     FM300600 29009KT P6SM BKN050=

USA.gov is the U.S. government's official web portal to all federal, state and local government web resources and services.